sensor_id;sensor_type;location;lat;lon;timestamp;P1;durP1;ratioP1;P2;durP2;ratioP2
45764;SDS011;31474;45.332;10.230;2023-01-09T00:01:27;5.72;;;3.97;;
45764;SDS011;31474;45.332;10.230;2023-01-09T00:03:59;5.55;;;4.13;;
45764;SDS011;31474;45.332;10.230;2023-01-09T00:06:25;5.00;;;3.95;;
45764;SDS011;31474;45.332;10.230;2023-01-09T00:08:51;6.03;;;4.55;;
45764;SDS011;31474;45.332;10.230;2023-01-09T00:11:16;7.13;;;5.15;;
45764;SDS011;31474;45.332;10.230;2023-01-09T00:13:42;5.80;;;4.63;;
45764;SDS011;31474;45.332;10.230;2023-01-09T00:16:08;6.00;;;4.50;;
45764;SDS011;31474;45.332;10.230;2023-01-09T00:18:34;5.40;;;4.43;;
45764;SDS011;31474;45.332;10.230;2023-01-09T00:21:01;5.38;;;4.53;;
45764;SDS011;31474;45.332;10.230;2023-01-09T00:23:28;5.10;;;4.60;;
45764;SDS011;31474;45.332;10.230;2023-01-09T00:26:27;4.85;;;3.78;;
45764;SDS011;31474;45.332;10.230;2023-01-09T00:28:48;4.28;;;3.40;;
45764;SDS011;31474;45.332;10.230;2023-01-09T00:31:15;3.33;;;2.95;;
45764;SDS011;31474;45.332;10.230;2023-01-09T00:33:43;5.13;;;3.15;;
45764;SDS011;31474;45.332;10.230;2023-01-09T00:36:12;4.00;;;3.10;;
45764;SDS011;31474;45.332;10.230;2023-01-09T00:38:38;3.83;;;3.17;;
45764;SDS011;31474;45.332;10.230;2023-01-09T00:41:05;3.45;;;2.90;;
45764;SDS011;31474;45.332;10.230;2023-01-09T00:43:35;7.38;;;3.22;;
45764;SDS011;31474;45.332;10.230;2023-01-09T00:46:04;4.53;;;3.08;;
45764;SDS011;31474;45.332;10.230;2023-01-09T00:48:32;3.15;;;2.53;;
45764;SDS011;31474;45.332;10.230;2023-01-09T00:51:01;3.63;;;3.13;;
45764;SDS011;31474;45.332;10.230;2023-01-09T00:53:28;3.08;;;2.78;;
45764;SDS011;31474;45.332;10.230;2023-01-09T00:55:57;5.72;;;3.65;;
45764;SDS011;31474;45.332;10.230;2023-01-09T00:58:25;6.35;;;4.80;;
45764;SDS011;31474;45.332;10.230;2023-01-09T01:00:51;6.18;;;5.03;;
45764;SDS011;31474;45.332;10.230;2023-01-09T01:03:17;5.70;;;4.78;;
45764;SDS011;31474;45.332;10.230;2023-01-09T01:05:44;7.70;;;5.78;;
45764;SDS011;31474;45.332;10.230;2023-01-09T01:08:28;7.00;;;5.57;;
45764;SDS011;31474;45.332;10.230;2023-01-09T01:10:53;5.82;;;5.07;;
45764;SDS011;31474;45.332;10.230;2023-01-09T01:13:19;6.18;;;5.13;;
45764;SDS011;31474;45.332;10.230;2023-01-09T01:15:44;6.90;;;5.68;;
45764;SDS011;31474;45.332;10.230;2023-01-09T01:18:11;7.35;;;5.38;;
45764;SDS011;31474;45.332;10.230;2023-01-09T01:20:41;6.55;;;5.07;;
45764;SDS011;31474;45.332;10.230;2023-01-09T01:23:08;6.53;;;5.13;;
45764;SDS011;31474;45.332;10.230;2023-01-09T01:25:37;7.00;;;5.45;;
45764;SDS011;31474;45.332;10.230;2023-01-09T01:28:04;6.72;;;5.35;;
45764;SDS011;31474;45.332;10.230;2023-01-09T01:30:31;7.18;;;5.55;;
45764;SDS011;31474;45.332;10.230;2023-01-09T01:32:57;5.93;;;5.32;;
45764;SDS011;31474;45.332;10.230;2023-01-09T01:35:23;6.00;;;5.10;;
45764;SDS011;31474;45.332;10.230;2023-01-09T01:37:50;6.05;;;5.45;;
45764;SDS011;31474;45.332;10.230;2023-01-09T01:40:16;8.48;;;5.68;;
45764;SDS011;31474;45.332;10.230;2023-01-09T01:42:49;6.55;;;5.45;;
45764;SDS011;31474;45.332;10.230;2023-01-09T01:45:25;8.13;;;6.03;;
45764;SDS011;31474;45.332;10.230;2023-01-09T01:47:54;7.53;;;5.55;;
45764;SDS011;31474;45.332;10.230;2023-01-09T01:50:42;9.25;;;6.93;;
45764;SDS011;31474;45.332;10.230;2023-01-09T01:53:15;8.75;;;6.18;;
45764;SDS011;31474;45.332;10.230;2023-01-09T01:55:58;7.75;;;6.28;;
45764;SDS011;31474;45.332;10.230;2023-01-09T01:58:36;7.13;;;5.65;;
45764;SDS011;31474;45.332;10.230;2023-01-09T02:01:10;8.10;;;5.63;;
45764;SDS011;31474;45.332;10.230;2023-01-09T02:03:36;9.45;;;6.30;;
45764;SDS011;31474;45.332;10.230;2023-01-09T02:06:03;8.85;;;6.63;;
45764;SDS011;31474;45.332;10.230;2023-01-09T02:08:30;8.82;;;6.72;;
45764;SDS011;31474;45.332;10.230;2023-01-09T02:10:56;8.57;;;6.57;;
45764;SDS011;31474;45.332;10.230;2023-01-09T02:13:21;9.13;;;7.18;;
45764;SDS011;31474;45.332;10.230;2023-01-09T02:21:12;9.73;;;7.15;;
45764;SDS011;31474;45.332;10.230;2023-01-09T02:43:07;14.40;;;9.32;;
45764;SDS011;31474;45.332;10.230;2023-01-09T02:45:34;15.63;;;10.88;;
45764;SDS011;31474;45.332;10.230;2023-01-09T02:48:00;15.85;;;10.35;;
45764;SDS011;31474;45.332;10.230;2023-01-09T03:03:58;15.98;;;11.20;;
45764;SDS011;31474;45.332;10.230;2023-01-09T03:09:13;18.00;;;11.32;;
45764;SDS011;31474;45.332;10.230;2023-01-09T03:11:46;19.83;;;12.15;;
45764;SDS011;31474;45.332;10.230;2023-01-09T03:14:24;21.08;;;12.25;;
45764;SDS011;31474;45.332;10.230;2023-01-09T03:16:55;15.43;;;11.25;;
45764;SDS011;31474;45.332;10.230;2023-01-09T03:19:24;19.13;;;12.60;;
45764;SDS011;31474;45.332;10.230;2023-01-09T03:21:53;19.90;;;11.95;;
45764;SDS011;31474;45.332;10.230;2023-01-09T03:24:20;18.75;;;12.27;;
45764;SDS011;31474;45.332;10.230;2023-01-09T03:26:45;19.17;;;10.48;;
45764;SDS011;31474;45.332;10.230;2023-01-09T03:29:11;20.02;;;12.13;;
45764;SDS011;31474;45.332;10.230;2023-01-09T03:31:37;17.38;;;12.00;;
45764;SDS011;31474;45.332;10.230;2023-01-09T03:34:03;15.13;;;10.63;;
45764;SDS011;31474;45.332;10.230;2023-01-09T03:36:29;19.90;;;12.10;;
45764;SDS011;31474;45.332;10.230;2023-01-09T03:38:54;18.15;;;12.68;;
45764;SDS011;31474;45.332;10.230;2023-01-09T03:41:20;18.60;;;12.45;;
45764;SDS011;31474;45.332;10.230;2023-01-09T03:43:46;18.15;;;12.48;;
45764;SDS011;31474;45.332;10.230;2023-01-09T03:46:12;17.65;;;11.48;;
45764;SDS011;31474;45.332;10.230;2023-01-09T03:48:39;18.85;;;13.68;;
45764;SDS011;31474;45.332;10.230;2023-01-09T03:51:05;16.17;;;11.32;;
45764;SDS011;31474;45.332;10.230;2023-01-09T03:53:30;16.52;;;11.07;;
45764;SDS011;31474;45.332;10.230;2023-01-09T03:55:56;17.85;;;11.50;;
45764;SDS011;31474;45.332;10.230;2023-01-09T03:58:23;16.65;;;11.07;;
45764;SDS011;31474;45.332;10.230;2023-01-09T04:00:49;17.80;;;11.45;;
45764;SDS011;31474;45.332;10.230;2023-01-09T04:03:17;17.40;;;11.88;;
45764;SDS011;31474;45.332;10.230;2023-01-09T04:05:44;16.27;;;11.32;;
45764;SDS011;31474;45.332;10.230;2023-01-09T04:08:11;14.63;;;11.25;;
45764;SDS011;31474;45.332;10.230;2023-01-09T04:10:37;17.05;;;11.40;;
45764;SDS011;31474;45.332;10.230;2023-01-09T04:13:03;18.40;;;10.45;;
45764;SDS011;31474;45.332;10.230;2023-01-09T04:15:28;16.35;;;10.75;;
45764;SDS011;31474;45.332;10.230;2023-01-09T04:17:54;17.50;;;11.00;;
45764;SDS011;31474;45.332;10.230;2023-01-09T04:20:20;16.20;;;11.05;;
45764;SDS011;31474;45.332;10.230;2023-01-09T04:22:45;15.98;;;9.68;;
45764;SDS011;31474;45.332;10.230;2023-01-09T04:25:11;17.65;;;10.60;;
45764;SDS011;31474;45.332;10.230;2023-01-09T04:27:37;14.90;;;10.77;;
45764;SDS011;31474;45.332;10.230;2023-01-09T04:30:03;16.95;;;11.38;;
45764;SDS011;31474;45.332;10.230;2023-01-09T04:32:29;15.07;;;10.38;;
45764;SDS011;31474;45.332;10.230;2023-01-09T04:34:55;15.45;;;10.02;;
45764;SDS011;31474;45.332;10.230;2023-01-09T04:37:22;14.23;;;10.45;;
45764;SDS011;31474;45.332;10.230;2023-01-09T04:39:48;15.73;;;10.55;;
45764;SDS011;31474;45.332;10.230;2023-01-09T04:42:15;13.45;;;9.20;;
45764;SDS011;31474;45.332;10.230;2023-01-09T04:44:41;17.42;;;9.82;;
45764;SDS011;31474;45.332;10.230;2023-01-09T04:47:06;12.85;;;9.07;;
45764;SDS011;31474;45.332;10.230;2023-01-09T04:49:32;11.48;;;9.50;;
45764;SDS011;31474;45.332;10.230;2023-01-09T04:51:58;15.75;;;9.75;;
45764;SDS011;31474;45.332;10.230;2023-01-09T04:54:23;14.85;;;9.57;;
45764;SDS011;31474;45.332;10.230;2023-01-09T04:56:49;13.73;;;9.55;;
45764;SDS011;31474;45.332;10.230;2023-01-09T04:59:15;12.45;;;8.68;;
45764;SDS011;31474;45.332;10.230;2023-01-09T05:01:40;13.85;;;9.10;;
45764;SDS011;31474;45.332;10.230;2023-01-09T05:04:06;13.43;;;8.90;;
45764;SDS011;31474;45.332;10.230;2023-01-09T05:06:32;13.07;;;8.18;;
45764;SDS011;31474;45.332;10.230;2023-01-09T05:08:58;11.63;;;8.48;;
45764;SDS011;31474;45.332;10.230;2023-01-09T05:11:24;11.52;;;8.27;;
45764;SDS011;31474;45.332;10.230;2023-01-09T05:13:51;11.77;;;7.60;;
45764;SDS011;31474;45.332;10.230;2023-01-09T05:16:17;10.88;;;7.75;;
45764;SDS011;31474;45.332;10.230;2023-01-09T05:18:42;10.07;;;7.18;;
45764;SDS011;31474;45.332;10.230;2023-01-09T05:21:08;11.90;;;8.00;;
45764;SDS011;31474;45.332;10.230;2023-01-09T05:23:34;12.98;;;8.35;;
45764;SDS011;31474;45.332;10.230;2023-01-09T05:25:59;12.45;;;7.93;;
45764;SDS011;31474;45.332;10.230;2023-01-09T05:28:25;11.02;;;7.47;;
45764;SDS011;31474;45.332;10.230;2023-01-09T05:30:50;10.82;;;8.35;;
45764;SDS011;31474;45.332;10.230;2023-01-09T05:33:16;11.15;;;7.90;;
45764;SDS011;31474;45.332;10.230;2023-01-09T05:35:42;11.75;;;7.90;;
45764;SDS011;31474;45.332;10.230;2023-01-09T05:38:07;13.23;;;8.80;;
45764;SDS011;31474;45.332;10.230;2023-01-09T05:40:33;10.82;;;7.65;;
45764;SDS011;31474;45.332;10.230;2023-01-09T05:42:59;14.52;;;9.10;;
45764;SDS011;31474;45.332;10.230;2023-01-09T05:45:24;10.52;;;7.75;;
45764;SDS011;31474;45.332;10.230;2023-01-09T05:47:51;10.45;;;7.78;;
45764;SDS011;31474;45.332;10.230;2023-01-09T05:50:17;11.85;;;8.30;;
45764;SDS011;31474;45.332;10.230;2023-01-09T05:52:42;11.30;;;7.60;;
45764;SDS011;31474;45.332;10.230;2023-01-09T05:55:08;12.43;;;8.63;;
45764;SDS011;31474;45.332;10.230;2023-01-09T05:57:36;12.40;;;8.65;;
45764;SDS011;31474;45.332;10.230;2023-01-09T06:00:02;12.07;;;8.55;;
45764;SDS011;31474;45.332;10.230;2023-01-09T06:02:28;12.13;;;8.02;;
45764;SDS011;31474;45.332;10.230;2023-01-09T06:04:54;11.07;;;8.68;;
45764;SDS011;31474;45.332;10.230;2023-01-09T06:07:20;12.93;;;8.30;;
45764;SDS011;31474;45.332;10.230;2023-01-09T06:09:45;13.80;;;8.32;;
45764;SDS011;31474;45.332;10.230;2023-01-09T06:12:11;12.20;;;8.02;;
45764;SDS011;31474;45.332;10.230;2023-01-09T06:14:36;11.68;;;8.60;;
45764;SDS011;31474;45.332;10.230;2023-01-09T06:17:02;13.52;;;8.98;;
45764;SDS011;31474;45.332;10.230;2023-01-09T06:19:28;11.00;;;7.63;;
45764;SDS011;31474;45.332;10.230;2023-01-09T06:21:53;15.65;;;9.07;;
45764;SDS011;31474;45.332;10.230;2023-01-09T06:24:19;11.48;;;6.85;;
45764;SDS011;31474;45.332;10.230;2023-01-09T06:26:45;10.57;;;7.63;;
45764;SDS011;31474;45.332;10.230;2023-01-09T06:29:10;13.75;;;8.13;;
45764;SDS011;31474;45.332;10.230;2023-01-09T06:31:36;12.50;;;9.23;;
45764;SDS011;31474;45.332;10.230;2023-01-09T06:34:01;9.68;;;7.40;;
45764;SDS011;31474;45.332;10.230;2023-01-09T06:36:27;10.85;;;7.50;;
45764;SDS011;31474;45.332;10.230;2023-01-09T06:38:53;11.40;;;7.55;;
45764;SDS011;31474;45.332;10.230;2023-01-09T06:41:18;10.27;;;7.70;;
45764;SDS011;31474;45.332;10.230;2023-01-09T06:43:44;9.85;;;6.70;;
45764;SDS011;31474;45.332;10.230;2023-01-09T06:46:10;12.10;;;7.80;;
45764;SDS011;31474;45.332;10.230;2023-01-09T06:48:35;10.68;;;7.25;;
45764;SDS011;31474;45.332;10.230;2023-01-09T06:51:01;21.83;;;13.98;;
45764;SDS011;31474;45.332;10.230;2023-01-09T06:53:27;18.55;;;13.65;;
45764;SDS011;31474;45.332;10.230;2023-01-09T06:55:53;12.77;;;9.18;;
45764;SDS011;31474;45.332;10.230;2023-01-09T06:58:18;8.55;;;6.93;;
45764;SDS011;31474;45.332;10.230;2023-01-09T07:00:44;10.88;;;7.05;;
45764;SDS011;31474;45.332;10.230;2023-01-09T07:03:10;10.40;;;7.07;;
45764;SDS011;31474;45.332;10.230;2023-01-09T07:05:40;8.38;;;6.85;;
45764;SDS011;31474;45.332;10.230;2023-01-09T07:08:06;8.35;;;6.55;;
45764;SDS011;31474;45.332;10.230;2023-01-09T07:10:32;9.20;;;7.07;;
45764;SDS011;31474;45.332;10.230;2023-01-09T07:12:58;9.30;;;6.97;;
45764;SDS011;31474;45.332;10.230;2023-01-09T07:15:24;8.45;;;6.10;;
45764;SDS011;31474;45.332;10.230;2023-01-09T07:17:50;10.13;;;7.40;;
45764;SDS011;31474;45.332;10.230;2023-01-09T07:20:16;8.90;;;7.00;;
45764;SDS011;31474;45.332;10.230;2023-01-09T07:22:42;9.57;;;6.60;;
45764;SDS011;31474;45.332;10.230;2023-01-09T07:25:08;10.38;;;7.13;;
45764;SDS011;31474;45.332;10.230;2023-01-09T07:27:34;12.32;;;8.07;;
45764;SDS011;31474;45.332;10.230;2023-01-09T07:29:59;11.23;;;7.90;;
45764;SDS011;31474;45.332;10.230;2023-01-09T07:32:25;16.02;;;10.85;;
45764;SDS011;31474;45.332;10.230;2023-01-09T07:34:51;15.30;;;9.60;;
45764;SDS011;31474;45.332;10.230;2023-01-09T07:37:16;14.38;;;9.43;;
45764;SDS011;31474;45.332;10.230;2023-01-09T07:39:42;12.77;;;8.50;;
45764;SDS011;31474;45.332;10.230;2023-01-09T07:42:08;13.43;;;8.82;;
45764;SDS011;31474;45.332;10.230;2023-01-09T07:44:34;13.88;;;8.98;;
45764;SDS011;31474;45.332;10.230;2023-01-09T07:47:00;14.85;;;8.75;;
45764;SDS011;31474;45.332;10.230;2023-01-09T07:49:26;14.05;;;9.60;;
45764;SDS011;31474;45.332;10.230;2023-01-09T07:51:51;16.65;;;10.95;;
45764;SDS011;31474;45.332;10.230;2023-01-09T07:54:17;14.93;;;8.57;;
45764;SDS011;31474;45.332;10.230;2023-01-09T07:56:42;17.83;;;10.60;;
45764;SDS011;31474;45.332;10.230;2023-01-09T07:59:08;19.15;;;9.82;;
45764;SDS011;31474;45.332;10.230;2023-01-09T08:01:34;16.60;;;10.65;;
45764;SDS011;31474;45.332;10.230;2023-01-09T08:03:59;13.85;;;8.27;;
45764;SDS011;31474;45.332;10.230;2023-01-09T08:06:25;16.15;;;9.18;;
45764;SDS011;31474;45.332;10.230;2023-01-09T08:08:51;15.77;;;9.60;;
45764;SDS011;31474;45.332;10.230;2023-01-09T08:11:16;17.42;;;9.18;;
45764;SDS011;31474;45.332;10.230;2023-01-09T08:13:42;16.80;;;8.57;;
45764;SDS011;31474;45.332;10.230;2023-01-09T08:16:07;20.83;;;10.45;;
45764;SDS011;31474;45.332;10.230;2023-01-09T08:18:33;17.33;;;10.07;;
45764;SDS011;31474;45.332;10.230;2023-01-09T08:20:59;18.15;;;10.93;;
45764;SDS011;31474;45.332;10.230;2023-01-09T08:23:24;20.92;;;10.32;;
45764;SDS011;31474;45.332;10.230;2023-01-09T08:25:51;18.13;;;11.27;;
45764;SDS011;31474;45.332;10.230;2023-01-09T08:28:17;21.63;;;11.00;;
45764;SDS011;31474;45.332;10.230;2023-01-09T08:30:42;23.67;;;10.88;;
45764;SDS011;31474;45.332;10.230;2023-01-09T08:33:08;26.83;;;12.23;;
45764;SDS011;31474;45.332;10.230;2023-01-09T08:35:34;25.83;;;11.20;;
45764;SDS011;31474;45.332;10.230;2023-01-09T08:38:01;26.42;;;12.18;;
45764;SDS011;31474;45.332;10.230;2023-01-09T08:40:26;28.92;;;13.00;;
45764;SDS011;31474;45.332;10.230;2023-01-09T08:42:52;31.83;;;14.10;;
45764;SDS011;31474;45.332;10.230;2023-01-09T08:45:36;30.30;;;14.15;;
45764;SDS011;31474;45.332;10.230;2023-01-09T08:48:20;25.00;;;13.15;;
45764;SDS011;31474;45.332;10.230;2023-01-09T08:50:46;32.08;;;14.30;;
45764;SDS011;31474;45.332;10.230;2023-01-09T08:53:12;27.52;;;13.07;;
45764;SDS011;31474;45.332;10.230;2023-01-09T08:55:38;27.50;;;14.68;;
45764;SDS011;31474;45.332;10.230;2023-01-09T08:58:03;29.50;;;14.60;;
45764;SDS011;31474;45.332;10.230;2023-01-09T09:00:29;31.08;;;13.82;;
45764;SDS011;31474;45.332;10.230;2023-01-09T09:02:55;37.08;;;16.05;;
45764;SDS011;31474;45.332;10.230;2023-01-09T09:05:23;33.40;;;17.35;;
45764;SDS011;31474;45.332;10.230;2023-01-09T09:07:51;48.63;;;22.23;;
45764;SDS011;31474;45.332;10.230;2023-01-09T09:10:21;34.38;;;19.33;;
45764;SDS011;31474;45.332;10.230;2023-01-09T09:12:51;39.45;;;17.98;;
45764;SDS011;31474;45.332;10.230;2023-01-09T09:15:18;29.20;;;15.02;;
45764;SDS011;31474;45.332;10.230;2023-01-09T09:17:51;27.15;;;17.25;;
45764;SDS011;31474;45.332;10.230;2023-01-09T09:20:22;30.10;;;15.98;;
45764;SDS011;31474;45.332;10.230;2023-01-09T09:22:50;30.67;;;14.10;;
45764;SDS011;31474;45.332;10.230;2023-01-09T09:25:16;23.90;;;13.55;;
45764;SDS011;31474;45.332;10.230;2023-01-09T09:27:42;27.40;;;14.13;;
45764;SDS011;31474;45.332;10.230;2023-01-09T09:30:09;27.25;;;15.98;;
45764;SDS011;31474;45.332;10.230;2023-01-09T09:32:35;27.77;;;15.65;;
45764;SDS011;31474;45.332;10.230;2023-01-09T09:35:01;27.40;;;16.27;;
45764;SDS011;31474;45.332;10.230;2023-01-09T09:37:27;22.77;;;15.10;;
45764;SDS011;31474;45.332;10.230;2023-01-09T09:39:53;22.20;;;15.95;;
45764;SDS011;31474;45.332;10.230;2023-01-09T09:54:14;26.92;;;17.10;;
45764;SDS011;31474;45.332;10.230;2023-01-09T09:56:50;21.70;;;14.18;;
45764;SDS011;31474;45.332;10.230;2023-01-09T09:59:23;22.20;;;14.10;;
45764;SDS011;31474;45.332;10.230;2023-01-09T10:04:29;16.50;;;12.10;;
45764;SDS011;31474;45.332;10.230;2023-01-09T10:06:58;16.90;;;12.02;;
45764;SDS011;31474;45.332;10.230;2023-01-09T10:09:40;18.92;;;11.52;;
45764;SDS011;31474;45.332;10.230;2023-01-09T10:15:05;27.75;;;18.90;;
45764;SDS011;31474;45.332;10.230;2023-01-09T10:25:39;17.48;;;14.23;;
45764;SDS011;31474;45.332;10.230;2023-01-09T10:39:32;29.00;;;19.10;;
45764;SDS011;31474;45.332;10.230;2023-01-09T10:47:57;23.10;;;16.88;;
45764;SDS011;31474;45.332;10.230;2023-01-09T10:50:28;24.00;;;16.73;;
45764;SDS011;31474;45.332;10.230;2023-01-09T10:52:57;23.10;;;17.10;;
45764;SDS011;31474;45.332;10.230;2023-01-09T10:55:34;21.92;;;16.90;;
45764;SDS011;31474;45.332;10.230;2023-01-09T10:58:09;19.30;;;15.90;;
45764;SDS011;31474;45.332;10.230;2023-01-09T11:00:37;20.60;;;16.20;;
45764;SDS011;31474;45.332;10.230;2023-01-09T11:03:03;22.83;;;17.25;;
45764;SDS011;31474;45.332;10.230;2023-01-09T11:05:29;26.05;;;16.30;;
45764;SDS011;31474;45.332;10.230;2023-01-09T11:08:00;19.38;;;14.85;;
45764;SDS011;31474;45.332;10.230;2023-01-09T11:10:44;19.10;;;15.90;;
45764;SDS011;31474;45.332;10.230;2023-01-09T11:13:12;17.50;;;14.10;;
45764;SDS011;31474;45.332;10.230;2023-01-09T11:18:31;19.20;;;13.32;;
45764;SDS011;31474;45.332;10.230;2023-01-09T11:21:11;15.85;;;11.85;;
45764;SDS011;31474;45.332;10.230;2023-01-09T11:23:37;18.17;;;12.48;;
45764;SDS011;31474;45.332;10.230;2023-01-09T11:26:02;17.13;;;12.02;;
45764;SDS011;31474;45.332;10.230;2023-01-09T11:28:28;16.25;;;13.05;;
45764;SDS011;31474;45.332;10.230;2023-01-09T11:31:00;15.20;;;12.30;;
45764;SDS011;31474;45.332;10.230;2023-01-09T11:33:30;17.35;;;11.63;;
45764;SDS011;31474;45.332;10.230;2023-01-09T11:38:30;15.85;;;11.85;;
45764;SDS011;31474;45.332;10.230;2023-01-09T11:41:08;20.70;;;14.02;;
45764;SDS011;31474;45.332;10.230;2023-01-09T11:43:42;26.15;;;16.00;;
45764;SDS011;31474;45.332;10.230;2023-01-09T11:46:10;17.13;;;12.57;;
45764;SDS011;31474;45.332;10.230;2023-01-09T11:48:56;16.25;;;11.82;;
45764;SDS011;31474;45.332;10.230;2023-01-09T11:51:24;16.33;;;10.90;;
45764;SDS011;31474;45.332;10.230;2023-01-09T11:56:36;15.95;;;10.50;;
45764;SDS011;31474;45.332;10.230;2023-01-09T11:59:07;15.80;;;10.52;;
45764;SDS011;31474;45.332;10.230;2023-01-09T12:04:25;13.13;;;9.40;;
45764;SDS011;31474;45.332;10.230;2023-01-09T12:28:50;35.17;;;17.88;;
45764;SDS011;31474;45.332;10.230;2023-01-09T12:31:37;52.65;;;23.25;;
45764;SDS011;31474;45.332;10.230;2023-01-09T12:52:25;14.05;;;9.85;;
45764;SDS011;31474;45.332;10.230;2023-01-09T12:54:58;11.13;;;8.35;;
45764;SDS011;31474;45.332;10.230;2023-01-09T12:57:30;13.07;;;9.65;;
45764;SDS011;31474;45.332;10.230;2023-01-09T13:00:10;14.20;;;9.65;;
45764;SDS011;31474;45.332;10.230;2023-01-09T13:05:44;13.68;;;9.55;;
45764;SDS011;31474;45.332;10.230;2023-01-09T13:13:51;15.90;;;10.90;;
45764;SDS011;31474;45.332;10.230;2023-01-09T13:16:43;15.18;;;11.02;;
45764;SDS011;31474;45.332;10.230;2023-01-09T13:21:45;14.80;;;12.05;;
45764;SDS011;31474;45.332;10.230;2023-01-09T13:24:18;14.90;;;10.85;;
45764;SDS011;31474;45.332;10.230;2023-01-09T13:27:08;14.98;;;10.35;;
45764;SDS011;31474;45.332;10.230;2023-01-09T13:29:41;13.18;;;10.50;;
45764;SDS011;31474;45.332;10.230;2023-01-09T13:34:46;16.25;;;11.00;;
45764;SDS011;31474;45.332;10.230;2023-01-09T13:37:29;16.58;;;11.10;;
45764;SDS011;31474;45.332;10.230;2023-01-09T13:42:24;16.23;;;10.48;;
45764;SDS011;31474;45.332;10.230;2023-01-09T13:47:41;16.08;;;10.30;;
45764;SDS011;31474;45.332;10.230;2023-01-09T13:52:34;16.17;;;11.77;;
45764;SDS011;31474;45.332;10.230;2023-01-09T14:05:13;12.98;;;9.05;;
45764;SDS011;31474;45.332;10.230;2023-01-09T14:07:44;10.98;;;9.13;;
45764;SDS011;31474;45.332;10.230;2023-01-09T14:10:24;11.85;;;8.52;;
45764;SDS011;31474;45.332;10.230;2023-01-09T14:12:54;12.80;;;8.70;;
45764;SDS011;31474;45.332;10.230;2023-01-09T14:15:26;10.07;;;7.95;;
45764;SDS011;31474;45.332;10.230;2023-01-09T14:18:04;11.38;;;8.15;;
45764;SDS011;31474;45.332;10.230;2023-01-09T14:20:34;13.02;;;8.30;;
45764;SDS011;31474;45.332;10.230;2023-01-09T14:23:02;12.35;;;8.80;;
45764;SDS011;31474;45.332;10.230;2023-01-09T14:25:29;15.95;;;9.60;;
45764;SDS011;31474;45.332;10.230;2023-01-09T14:35:24;13.60;;;9.13;;
45764;SDS011;31474;45.332;10.230;2023-01-09T14:38:05;28.70;;;14.57;;
45764;SDS011;31474;45.332;10.230;2023-01-09T14:40:37;18.15;;;10.32;;
45764;SDS011;31474;45.332;10.230;2023-01-09T14:43:11;12.57;;;8.63;;
45764;SDS011;31474;45.332;10.230;2023-01-09T14:45:43;11.52;;;7.72;;
45764;SDS011;31474;45.332;10.230;2023-01-09T14:48:11;11.80;;;7.93;;
45764;SDS011;31474;45.332;10.230;2023-01-09T14:50:42;12.85;;;8.90;;
45764;SDS011;31474;45.332;10.230;2023-01-09T14:53:25;16.70;;;9.77;;
45764;SDS011;31474;45.332;10.230;2023-01-09T14:55:55;15.07;;;8.80;;
45764;SDS011;31474;45.332;10.230;2023-01-09T14:58:29;13.55;;;8.75;;
45764;SDS011;31474;45.332;10.230;2023-01-09T15:03:52;18.25;;;10.75;;
45764;SDS011;31474;45.332;10.230;2023-01-09T15:06:27;13.82;;;8.52;;
45764;SDS011;31474;45.332;10.230;2023-01-09T15:09:05;21.50;;;12.10;;
45764;SDS011;31474;45.332;10.230;2023-01-09T15:11:44;21.85;;;13.90;;
45764;SDS011;31474;45.332;10.230;2023-01-09T15:16:56;19.33;;;13.02;;
45764;SDS011;31474;45.332;10.230;2023-01-09T15:19:24;22.58;;;15.20;;
45764;SDS011;31474;45.332;10.230;2023-01-09T15:21:56;20.55;;;15.75;;
45764;SDS011;31474;45.332;10.230;2023-01-09T15:24:27;21.70;;;14.68;;
45764;SDS011;31474;45.332;10.230;2023-01-09T15:26:55;20.55;;;14.60;;
45764;SDS011;31474;45.332;10.230;2023-01-09T15:29:22;20.88;;;15.57;;
45764;SDS011;31474;45.332;10.230;2023-01-09T15:31:50;19.33;;;15.32;;
45764;SDS011;31474;45.332;10.230;2023-01-09T15:34:26;27.30;;;18.33;;
45764;SDS011;31474;45.332;10.230;2023-01-09T15:36:53;25.70;;;18.80;;
45764;SDS011;31474;45.332;10.230;2023-01-09T15:39:26;21.75;;;15.98;;
45764;SDS011;31474;45.332;10.230;2023-01-09T15:41:55;20.35;;;13.73;;
45764;SDS011;31474;45.332;10.230;2023-01-09T15:44:42;18.30;;;14.52;;
45764;SDS011;31474;45.332;10.230;2023-01-09T15:47:12;21.73;;;13.98;;
45764;SDS011;31474;45.332;10.230;2023-01-09T15:49:42;19.90;;;14.77;;
45764;SDS011;31474;45.332;10.230;2023-01-09T15:52:10;20.08;;;13.65;;
45764;SDS011;31474;45.332;10.230;2023-01-09T15:54:39;21.88;;;13.82;;
45764;SDS011;31474;45.332;10.230;2023-01-09T15:57:27;20.67;;;14.82;;
45764;SDS011;31474;45.332;10.230;2023-01-09T16:00:21;24.13;;;16.27;;
45764;SDS011;31474;45.332;10.230;2023-01-09T16:02:55;23.55;;;15.77;;
45764;SDS011;31474;45.332;10.230;2023-01-09T16:06:19;21.65;;;16.55;;
45764;SDS011;31474;45.332;10.230;2023-01-09T16:08:31;23.15;;;15.50;;
45764;SDS011;31474;45.332;10.230;2023-01-09T16:11:04;21.40;;;15.25;;
45764;SDS011;31474;45.332;10.230;2023-01-09T16:13:36;20.73;;;14.88;;
45764;SDS011;31474;45.332;10.230;2023-01-09T16:16:09;19.30;;;13.05;;
45764;SDS011;31474;45.332;10.230;2023-01-09T16:18:37;17.23;;;13.27;;
45764;SDS011;31474;45.332;10.230;2023-01-09T16:23:55;20.98;;;13.60;;
45764;SDS011;31474;45.332;10.230;2023-01-09T16:26:23;16.40;;;12.15;;
45764;SDS011;31474;45.332;10.230;2023-01-09T16:28:50;20.63;;;16.42;;
45764;SDS011;31474;45.332;10.230;2023-01-09T16:31:29;24.65;;;18.00;;
45764;SDS011;31474;45.332;10.230;2023-01-09T16:34:04;27.05;;;20.13;;
45764;SDS011;31474;45.332;10.230;2023-01-09T16:36:34;20.52;;;15.13;;
45764;SDS011;31474;45.332;10.230;2023-01-09T16:39:00;17.38;;;12.45;;
45764;SDS011;31474;45.332;10.230;2023-01-09T16:41:28;17.73;;;13.38;;
45764;SDS011;31474;45.332;10.230;2023-01-09T16:44:12;22.17;;;14.32;;
45764;SDS011;31474;45.332;10.230;2023-01-09T16:46:39;19.35;;;13.68;;
45764;SDS011;31474;45.332;10.230;2023-01-09T16:49:21;20.30;;;12.98;;
45764;SDS011;31474;45.332;10.230;2023-01-09T16:51:50;20.00;;;11.23;;
45764;SDS011;31474;45.332;10.230;2023-01-09T16:54:16;15.85;;;11.68;;
45764;SDS011;31474;45.332;10.230;2023-01-09T16:56:44;17.48;;;11.48;;
45764;SDS011;31474;45.332;10.230;2023-01-09T16:59:20;18.90;;;12.07;;
45764;SDS011;31474;45.332;10.230;2023-01-09T17:01:48;16.63;;;11.45;;
45764;SDS011;31474;45.332;10.230;2023-01-09T17:04:14;13.30;;;8.73;;
45764;SDS011;31474;45.332;10.230;2023-01-09T17:06:44;16.58;;;9.77;;
45764;SDS011;31474;45.332;10.230;2023-01-09T17:09:12;13.48;;;9.20;;
45764;SDS011;31474;45.332;10.230;2023-01-09T17:11:40;15.13;;;10.43;;
45764;SDS011;31474;45.332;10.230;2023-01-09T17:14:06;18.48;;;12.55;;
45764;SDS011;31474;45.332;10.230;2023-01-09T17:16:33;16.27;;;12.10;;
45764;SDS011;31474;45.332;10.230;2023-01-09T17:19:00;15.55;;;10.23;;
45764;SDS011;31474;45.332;10.230;2023-01-09T17:21:27;11.45;;;7.95;;
45764;SDS011;31474;45.332;10.230;2023-01-09T17:23:53;13.73;;;8.95;;
45764;SDS011;31474;45.332;10.230;2023-01-09T17:26:39;11.80;;;8.27;;
45764;SDS011;31474;45.332;10.230;2023-01-09T17:29:28;14.25;;;8.57;;
45764;SDS011;31474;45.332;10.230;2023-01-09T17:31:54;12.63;;;8.77;;